createdAt,value
2022-12-08T00:01:35.961Z,21.90
2022-12-08T00:04:05.448Z,21.60
2022-12-08T00:06:54.840Z,22.80
2022-12-08T00:09:25.304Z,22.73
2022-12-08T00:11:56.320Z,22.13
2022-12-08T00:14:27.933Z,21.90
2022-12-08T00:16:56.315Z,23.42
2022-12-08T00:19:25.201Z,24.73
2022-12-08T00:21:53.945Z,24.15
2022-12-08T00:24:22.784Z,27.40
2022-12-08T00:26:51.209Z,27.92
2022-12-08T00:29:19.661Z,27.10
2022-12-08T00:31:49.069Z,27.15
2022-12-08T00:34:17.657Z,27.90
2022-12-08T00:36:45.981Z,27.20
2022-12-08T00:39:15.820Z,29.65
2022-12-08T00:42:01.674Z,30.80
2022-12-08T00:44:29.703Z,30.80
2022-12-08T00:46:59.229Z,32.33
2022-12-08T00:49:27.320Z,35.95
2022-12-08T00:51:55.350Z,38.13
2022-12-08T00:54:24.067Z,37.33
2022-12-08T00:56:52.497Z,40.33
2022-12-08T00:59:20.768Z,41.00
2022-12-08T01:01:49.199Z,34.05
2022-12-08T01:04:20.640Z,27.58
2022-12-08T01:06:49.166Z,36.77
2022-12-08T01:09:18.647Z,38.58
2022-12-08T01:11:47.043Z,39.88
2022-12-08T01:14:15.295Z,37.38
2022-12-08T01:16:43.801Z,36.40
2022-12-08T01:19:13.524Z,33.50
2022-12-08T01:21:43.812Z,31.17
2022-12-08T01:24:13.487Z,31.50
2022-12-08T01:26:41.663Z,31.48
2022-12-08T01:29:10.126Z,31.10
2022-12-08T01:31:38.711Z,31.27
2022-12-08T01:34:07.176Z,30.58
2022-12-08T01:36:38.570Z,31.40
2022-12-08T01:39:11.681Z,31.17
2022-12-08T01:41:40.539Z,29.55
2022-12-08T01:45:02.700Z,29.60
2022-12-08T01:47:41.144Z,28.88
2022-12-08T01:50:12.748Z,28.88
2022-12-08T01:52:42.679Z,31.80
2022-12-08T01:55:16.129Z,32.90
2022-12-08T01:57:48.373Z,22.50
2022-12-08T02:00:18.610Z,23.60
2022-12-08T02:02:54.277Z,14.95
2022-12-08T02:05:24.506Z,15.18
2022-12-08T02:07:53.590Z,16.58
2022-12-08T02:10:24.965Z,16.48
2022-12-08T02:12:56.251Z,12.30
2022-12-08T02:15:32.923Z,10.35
2022-12-08T02:18:15.593Z,10.85
2022-12-08T02:23:28.275Z,8.60
2022-12-08T02:26:28.815Z,8.18
2022-12-08T02:29:41.876Z,6.40
2022-12-08T02:32:31.761Z,5.80
2022-12-08T02:35:08.730Z,5.35
2022-12-08T02:37:40.374Z,6.70
2022-12-08T02:40:14.326Z,8.93
2022-12-08T02:42:46.707Z,9.40
2022-12-08T02:47:45.222Z,9.30
2022-12-08T02:50:15.818Z,7.80
2022-12-08T02:52:45.958Z,9.98
2022-12-08T02:55:24.160Z,11.60
2022-12-08T02:58:21.183Z,12.20
2022-12-08T03:01:04.922Z,13.10
2022-12-08T03:03:48.239Z,14.27
2022-12-08T03:06:29.230Z,14.93
2022-12-08T03:09:00.761Z,12.88
2022-12-08T03:11:35.986Z,8.63
2022-12-08T03:14:08.106Z,6.93
2022-12-08T03:16:40.119Z,7.88
2022-12-08T03:19:11.835Z,5.05
2022-12-08T03:21:42.332Z,5.20
2022-12-08T03:24:11.993Z,6.50
2022-12-08T03:26:46.850Z,7.30
2022-12-08T03:29:15.514Z,6.32
2022-12-08T03:31:49.794Z,5.80
2022-12-08T03:34:19.226Z,4.68
2022-12-08T03:36:48.659Z,5.10
2022-12-08T03:39:16.649Z,4.32
2022-12-08T03:41:44.645Z,3.97
2022-12-08T03:44:12.654Z,3.28
2022-12-08T03:46:40.590Z,2.85
2022-12-08T03:49:08.550Z,2.53
2022-12-08T03:51:36.625Z,2.75
2022-12-08T03:54:06.110Z,2.15
2022-12-08T03:56:36.314Z,2.33
2022-12-08T03:59:05.351Z,2.75
2022-12-08T04:01:33.855Z,2.15
2022-12-08T04:04:01.909Z,2.50
2022-12-08T04:06:30.047Z,2.25
2022-12-08T04:08:57.998Z,2.65
2022-12-08T04:11:27.345Z,2.13
2022-12-08T04:13:55.287Z,2.20
2022-12-08T04:16:26.041Z,1.80
2022-12-08T04:18:54.069Z,1.63
2022-12-08T04:21:22.730Z,1.67
2022-12-08T04:23:52.144Z,2.17
2022-12-08T04:26:22.891Z,3.03
2022-12-08T04:28:52.278Z,2.90
2022-12-08T04:31:20.312Z,3.53
2022-12-08T04:33:48.673Z,4.00
2022-12-08T04:36:16.688Z,3.38
2022-12-08T04:38:44.658Z,2.60
2022-12-08T04:41:12.590Z,2.47
2022-12-08T04:43:41.121Z,2.63
2022-12-08T04:46:10.960Z,3.80
2022-12-08T04:48:40.474Z,2.20
2022-12-08T04:51:08.795Z,2.42
2022-12-08T04:53:36.731Z,2.63
2022-12-08T04:56:05.014Z,2.00
2022-12-08T04:58:32.978Z,2.30
2022-12-08T05:01:01.023Z,2.45
2022-12-08T05:03:30.385Z,1.88
2022-12-08T05:06:00.523Z,2.42
2022-12-08T05:08:28.646Z,2.25
2022-12-08T05:11:03.673Z,2.42
2022-12-08T05:13:31.897Z,3.08
2022-12-08T05:16:04.651Z,2.53
2022-12-08T05:18:34.088Z,2.03
2022-12-08T05:21:02.270Z,2.63
2022-12-08T05:23:30.334Z,2.22
2022-12-08T05:25:58.526Z,1.42
2022-12-08T05:28:43.275Z,1.10
2022-12-08T05:31:28.639Z,1.63
2022-12-08T05:34:02.440Z,1.25
2022-12-08T05:36:31.105Z,1.40
2022-12-08T05:38:59.571Z,1.35
2022-12-08T05:41:27.548Z,1.58
2022-12-08T05:43:55.556Z,1.30
2022-12-08T05:46:23.683Z,1.65
2022-12-08T05:48:53.142Z,1.60
2022-12-08T05:51:22.742Z,1.88
2022-12-08T05:53:52.576Z,2.40
2022-12-08T05:56:21.209Z,2.10
2022-12-08T05:58:49.571Z,1.92
2022-12-08T06:01:22.058Z,2.50
2022-12-08T06:06:19.939Z,2.88
2022-12-08T06:08:48.224Z,2.30
2022-12-08T06:11:20.080Z,2.60
2022-12-08T06:13:48.625Z,2.75
2022-12-08T06:16:16.660Z,3.17
2022-12-08T06:18:44.704Z,4.13
2022-12-08T06:21:14.322Z,4.72
2022-12-08T06:23:43.851Z,6.15
2022-12-08T06:26:13.992Z,7.70
2022-12-08T06:28:42.980Z,8.50
2022-12-08T06:31:13.121Z,10.40
2022-12-08T06:33:41.066Z,10.20
2022-12-08T06:36:09.200Z,10.93
2022-12-08T06:38:41.768Z,11.98
2022-12-08T06:41:13.660Z,12.50
2022-12-08T06:43:42.006Z,12.65
2022-12-08T06:46:12.588Z,14.00
2022-12-08T06:48:40.623Z,14.10
2022-12-08T06:51:09.922Z,13.73
2022-12-08T06:53:37.941Z,13.57
2022-12-08T06:56:06.806Z,13.63
2022-12-08T06:58:36.609Z,13.35
2022-12-08T07:01:08.994Z,14.23
2022-12-08T07:03:37.447Z,15.27
2022-12-08T07:06:05.934Z,15.82
2022-12-08T07:08:34.591Z,16.45
2022-12-08T07:11:08.663Z,16.83
2022-12-08T07:13:38.095Z,15.45
2022-12-08T07:16:10.333Z,15.63
2022-12-08T07:18:39.017Z,16.02
2022-12-08T07:21:09.540Z,16.35
2022-12-08T07:23:37.590Z,17.38
2022-12-08T07:26:07.744Z,16.70
2022-12-08T07:28:38.237Z,17.90
2022-12-08T07:31:07.087Z,19.75
2022-12-08T07:33:36.042Z,17.40
2022-12-08T07:36:06.467Z,17.35
2022-12-08T07:38:34.844Z,15.43
2022-12-08T07:41:03.240Z,16.60
2022-12-08T07:43:31.178Z,18.50
2022-12-08T07:46:00.481Z,19.35
2022-12-08T07:48:29.644Z,18.45
2022-12-08T07:51:02.360Z,17.50
2022-12-08T07:53:30.703Z,16.58
2022-12-08T07:55:59.202Z,16.95
2022-12-08T07:58:27.606Z,15.80
2022-12-08T08:00:55.687Z,17.05
2022-12-08T08:03:25.129Z,15.88
2022-12-08T08:05:53.109Z,17.42
2022-12-08T08:08:21.139Z,18.80
2022-12-08T08:10:49.123Z,19.35
2022-12-08T08:13:17.023Z,17.90
2022-12-08T08:15:44.991Z,16.65
2022-12-08T08:18:13.703Z,16.65
2022-12-08T08:20:42.996Z,18.88
2022-12-08T08:23:10.929Z,20.73
2022-12-08T08:25:38.831Z,21.63
2022-12-08T08:28:06.839Z,22.80
2022-12-08T08:30:35.248Z,23.00
2022-12-08T08:33:03.201Z,23.17
2022-12-08T08:35:31.112Z,14.90
2022-12-08T08:38:00.418Z,6.15
2022-12-08T08:40:28.398Z,4.70
2022-12-08T08:42:56.338Z,4.13
2022-12-08T08:45:24.315Z,4.00
2022-12-08T08:47:52.608Z,3.72
2022-12-08T08:50:20.605Z,3.97
2022-12-08T08:52:48.907Z,5.22
2022-12-08T08:55:18.427Z,3.33
2022-12-08T08:57:46.510Z,4.50
2022-12-08T09:00:15.708Z,4.40
2022-12-08T09:02:43.628Z,4.40
2022-12-08T09:05:11.631Z,4.47
2022-12-08T09:07:39.603Z,4.00
2022-12-08T09:10:09.072Z,4.75
2022-12-08T09:12:38.693Z,5.60
2022-12-08T09:15:07.688Z,6.50
2022-12-08T09:17:35.688Z,6.97
2022-12-08T09:20:03.927Z,7.93
2022-12-08T09:22:32.136Z,9.68
2022-12-08T09:25:00.125Z,10.55
2022-12-08T09:27:28.137Z,9.80
2022-12-08T09:29:57.397Z,9.98
2022-12-08T09:32:25.348Z,10.60
2022-12-08T09:34:54.182Z,11.45
2022-12-08T09:37:22.205Z,10.48
2022-12-08T09:39:50.314Z,12.77
2022-12-08T09:42:36.736Z,11.50
2022-12-08T09:45:12.912Z,11.65
2022-12-08T09:47:44.283Z,12.95
2022-12-08T09:50:16.560Z,13.98
2022-12-08T09:52:48.406Z,12.90
2022-12-08T09:55:23.838Z,11.73
2022-12-08T09:57:58.916Z,11.05
2022-12-08T10:00:28.264Z,11.32
2022-12-08T10:02:57.564Z,8.98
2022-12-08T10:05:26.954Z,8.48
2022-12-08T10:08:04.419Z,7.70
2022-12-08T10:10:40.173Z,7.30
2022-12-08T10:13:16.050Z,8.38
2022-12-08T10:15:51.555Z,9.20
2022-12-08T10:18:21.656Z,9.70
2022-12-08T10:20:51.256Z,10.25
2022-12-08T10:23:26.251Z,11.80
2022-12-08T10:26:00.776Z,13.32
2022-12-08T10:28:28.784Z,12.20
2022-12-08T10:30:58.215Z,10.30
2022-12-08T10:33:26.747Z,9.60
2022-12-08T10:35:58.371Z,9.15
2022-12-08T10:38:30.902Z,9.40
2022-12-08T10:41:04.683Z,12.98
2022-12-08T10:43:33.356Z,13.15
2022-12-08T10:46:12.280Z,12.63
2022-12-08T10:48:49.388Z,14.15
2022-12-08T10:51:25.899Z,12.15
2022-12-08T10:53:53.836Z,12.13
2022-12-08T10:56:27.378Z,13.02
2022-12-08T10:59:07.869Z,15.57
2022-12-08T11:01:40.536Z,12.98
2022-12-08T11:04:14.497Z,11.43
2022-12-08T11:06:43.280Z,9.38
2022-12-08T11:09:27.166Z,7.88
2022-12-08T11:11:58.285Z,6.45
2022-12-08T11:14:28.718Z,6.90
2022-12-08T11:17:06.187Z,6.00
2022-12-08T11:19:38.887Z,6.65
2022-12-08T11:22:23.130Z,7.50
2022-12-08T11:24:59.963Z,7.80
2022-12-08T11:27:28.128Z,5.85
2022-12-08T11:29:56.245Z,5.60
2022-12-08T11:32:25.756Z,5.80
2022-12-08T11:34:59.596Z,5.07
2022-12-08T11:37:34.946Z,5.93
2022-12-08T11:40:08.870Z,5.65
2022-12-08T11:42:55.007Z,3.70
2022-12-08T11:45:27.795Z,3.70
2022-12-08T11:48:08.255Z,3.63
2022-12-08T11:50:43.542Z,3.72
2022-12-08T11:53:19.792Z,4.22
2022-12-08T11:55:53.152Z,4.93
2022-12-08T11:58:25.154Z,6.28
2022-12-08T12:00:53.356Z,6.20
2022-12-08T12:03:29.814Z,6.15
2022-12-08T12:06:46.446Z,5.50
2022-12-08T12:09:17.584Z,5.72
2022-12-08T12:12:19.498Z,7.75
2022-12-08T12:15:30.297Z,9.48
2022-12-08T12:18:03.160Z,9.77
2022-12-08T12:20:37.424Z,8.98
2022-12-08T12:23:09.306Z,7.90
2022-12-08T12:25:39.084Z,8.25
2022-12-08T12:28:09.290Z,8.15
2022-12-08T12:30:54.731Z,7.70
2022-12-08T12:33:24.323Z,6.80
2022-12-08T12:35:57.439Z,7.10
2022-12-08T12:38:48.455Z,7.95
2022-12-08T12:41:25.526Z,9.30
2022-12-08T12:44:38.320Z,9.90
2022-12-08T12:47:11.176Z,10.02
2022-12-08T12:50:09.783Z,9.65
2022-12-08T12:52:49.447Z,13.20
2022-12-08T12:55:52.169Z,11.77
2022-12-08T12:58:38.992Z,16.20
2022-12-08T13:01:43.280Z,18.27
2022-12-08T13:04:12.458Z,16.27
2022-12-08T13:06:43.271Z,13.88
2022-12-08T13:09:24.343Z,12.27
2022-12-08T13:11:55.216Z,12.55
2022-12-08T13:14:35.744Z,10.93
2022-12-08T13:17:09.193Z,11.90
2022-12-08T13:19:38.997Z,10.27
2022-12-08T13:22:40.061Z,11.93
2022-12-08T13:25:51.353Z,11.38
2022-12-08T13:28:26.340Z,11.48
2022-12-08T13:30:56.128Z,10.88
2022-12-08T13:33:27.979Z,11.27
2022-12-08T13:36:18.264Z,10.40
2022-12-08T13:38:48.112Z,9.32
2022-12-08T13:41:23.148Z,8.85
2022-12-08T13:44:39.130Z,9.00
2022-12-08T13:53:48.736Z,11.90
2022-12-08T13:58:20.606Z,8.75
2022-12-08T14:01:03.496Z,5.43
2022-12-08T14:03:31.990Z,5.85
2022-12-08T14:06:12.074Z,5.40
2022-12-08T14:09:03.726Z,5.85
2022-12-08T14:11:35.710Z,6.35
2022-12-08T14:16:40.016Z,6.72
2022-12-08T14:19:18.065Z,5.80
2022-12-08T14:21:54.731Z,5.70
2022-12-08T14:24:24.091Z,5.78
2022-12-08T14:26:55.281Z,5.38
2022-12-08T14:29:40.518Z,6.10
2022-12-08T14:32:24.915Z,6.70
2022-12-08T14:34:55.071Z,6.85
2022-12-08T14:37:26.215Z,6.82
2022-12-08T14:39:55.092Z,6.80
2022-12-08T14:42:25.472Z,7.80
2022-12-08T14:45:04.456Z,8.20
2022-12-08T14:47:34.499Z,8.45
2022-12-08T14:50:04.911Z,8.35
2022-12-08T14:52:33.132Z,8.70
2022-12-08T14:55:01.208Z,8.55
2022-12-08T14:57:35.601Z,8.63
2022-12-08T15:00:20.502Z,8.00
2022-12-08T15:02:48.544Z,9.13
2022-12-08T15:05:19.513Z,8.88
2022-12-08T15:07:50.649Z,9.75
2022-12-08T15:10:27.664Z,9.63
2022-12-08T15:13:05.731Z,9.10
2022-12-08T15:15:47.750Z,10.00
2022-12-08T15:18:18.360Z,9.95
2022-12-08T15:20:48.646Z,9.25
2022-12-08T15:23:23.271Z,9.48
2022-12-08T15:25:51.419Z,9.68
2022-12-08T15:28:23.989Z,9.00
2022-12-08T15:30:58.542Z,8.95
2022-12-08T15:33:26.750Z,8.50
2022-12-08T15:35:55.031Z,7.57
2022-12-08T15:38:25.833Z,6.78
2022-12-08T15:40:54.441Z,6.72
2022-12-08T15:43:23.384Z,7.25
2022-12-08T15:45:59.059Z,6.97
2022-12-08T15:48:30.306Z,6.85
2022-12-08T15:50:59.221Z,6.63
2022-12-08T15:53:27.325Z,6.90
2022-12-08T15:56:26.492Z,7.55
2022-12-08T15:58:59.386Z,8.55
2022-12-08T16:01:27.817Z,9.55
2022-12-08T16:04:36.875Z,9.55
2022-12-08T16:09:39.403Z,11.80
2022-12-08T16:13:13.412Z,12.85
2022-12-08T16:18:08.762Z,14.85
2022-12-08T16:21:06.524Z,18.65
2022-12-08T16:23:42.196Z,21.27
2022-12-08T16:26:28.419Z,21.33
2022-12-08T16:29:01.048Z,20.80
2022-12-08T16:31:29.275Z,25.33
2022-12-08T16:33:57.304Z,28.33
2022-12-08T16:36:26.612Z,26.67
2022-12-08T16:38:54.576Z,28.00
2022-12-08T16:41:40.186Z,30.33
2022-12-08T16:44:08.189Z,33.72
2022-12-08T16:46:37.053Z,32.30
2022-12-08T16:49:05.575Z,33.20
2022-12-08T16:51:34.841Z,32.10
2022-12-08T16:54:02.968Z,32.83
2022-12-08T16:56:33.371Z,31.58
2022-12-08T16:59:02.068Z,34.95
2022-12-08T17:01:30.356Z,33.13
2022-12-08T17:04:29.916Z,34.38
2022-12-08T17:06:47.625Z,33.30
2022-12-08T17:09:15.610Z,33.03
2022-12-08T17:11:44.083Z,33.65
2022-12-08T17:14:12.836Z,33.60
2022-12-08T17:16:41.497Z,29.30
2022-12-08T17:19:09.704Z,28.92
2022-12-08T17:21:37.676Z,29.45
2022-12-08T17:24:07.310Z,30.33
2022-12-08T17:26:35.377Z,29.88
2022-12-08T17:29:04.197Z,30.75
2022-12-08T17:31:33.177Z,27.98
2022-12-08T17:34:01.464Z,25.35
2022-12-08T17:36:29.615Z,25.48
2022-12-08T17:38:59.950Z,24.60
2022-12-08T17:41:29.892Z,22.92
2022-12-08T17:43:58.054Z,21.63
2022-12-08T17:46:26.400Z,20.50
2022-12-08T17:48:54.622Z,21.00
2022-12-08T17:51:22.719Z,19.42
2022-12-08T17:53:51.206Z,21.60
2022-12-08T17:56:21.029Z,22.08
2022-12-08T17:58:54.674Z,21.73
2022-12-08T18:01:23.890Z,22.33
2022-12-08T18:03:52.420Z,24.55
2022-12-08T18:06:20.445Z,23.85
2022-12-08T18:08:49.540Z,25.13
2022-12-08T18:11:20.036Z,25.65
2022-12-08T18:13:50.250Z,26.35
2022-12-08T18:16:19.586Z,26.65
2022-12-08T18:18:47.739Z,25.75
2022-12-08T18:21:22.836Z,26.45
2022-12-08T18:23:51.866Z,26.55
2022-12-08T18:26:20.507Z,28.13
2022-12-08T18:28:50.021Z,29.25
2022-12-08T18:31:20.217Z,30.05
2022-12-08T18:33:49.113Z,30.75
2022-12-08T18:36:19.454Z,32.22
2022-12-08T18:38:48.062Z,33.60
2022-12-08T18:41:17.610Z,31.10
2022-12-08T18:43:45.667Z,31.75
2022-12-08T18:46:15.946Z,33.65
2022-12-08T18:48:46.192Z,32.95
2022-12-08T18:51:15.605Z,31.42
2022-12-08T18:53:44.325Z,32.22
2022-12-08T18:56:22.220Z,33.00
2022-12-08T18:58:50.353Z,34.95
2022-12-08T19:01:20.210Z,33.00
2022-12-08T19:04:12.133Z,31.15
2022-12-08T19:06:40.058Z,28.42
2022-12-08T19:09:08.869Z,28.02
2022-12-08T19:11:38.781Z,26.10
2022-12-08T19:14:07.676Z,35.30
2022-12-08T19:16:37.116Z,28.55
2022-12-08T19:19:06.055Z,31.25
2022-12-08T19:21:34.289Z,48.50
2022-12-08T19:24:02.388Z,49.58
2022-12-08T19:26:30.370Z,72.05
2022-12-08T19:28:59.274Z,42.95
2022-12-08T19:31:27.270Z,41.58
2022-12-08T19:33:57.515Z,43.42
2022-12-08T19:36:26.136Z,48.65
2022-12-08T19:39:11.460Z,50.00
2022-12-08T19:41:56.816Z,45.10
2022-12-08T19:44:44.922Z,45.95
2022-12-08T19:47:13.099Z,44.97
2022-12-08T19:49:42.747Z,56.97
2022-12-08T19:52:10.904Z,49.60
2022-12-08T19:54:38.941Z,48.42
2022-12-08T19:57:07.171Z,51.53
2022-12-08T19:59:35.142Z,47.80
2022-12-08T20:02:03.189Z,50.60
2022-12-08T20:04:31.259Z,47.92
2022-12-08T20:07:00.727Z,48.83
2022-12-08T20:09:28.775Z,49.47
2022-12-08T20:11:56.744Z,50.42
2022-12-08T20:14:25.299Z,55.00
2022-12-08T20:16:53.388Z,55.67
2022-12-08T20:19:21.381Z,64.13
2022-12-08T20:21:49.527Z,56.78
2022-12-08T20:24:19.764Z,63.97
2022-12-08T20:26:47.764Z,58.80
2022-12-08T20:29:16.989Z,59.25
2022-12-08T20:31:45.605Z,67.13
2022-12-08T20:34:16.052Z,61.78
2022-12-08T20:36:44.331Z,65.90
2022-12-08T20:39:17.273Z,72.40
2022-12-08T20:41:47.949Z,65.07
2022-12-08T20:44:18.009Z,62.72
2022-12-08T20:46:49.433Z,63.53
2022-12-08T20:49:17.859Z,59.85
2022-12-08T20:51:46.613Z,59.25
2022-12-08T20:54:14.690Z,59.63
2022-12-08T20:56:48.088Z,61.58
2022-12-08T20:59:18.440Z,60.90
2022-12-08T21:01:46.486Z,60.58
2022-12-08T21:04:14.956Z,56.00
2022-12-08T21:06:43.131Z,58.38
2022-12-08T21:09:11.449Z,56.03
2022-12-08T21:11:39.593Z,60.55
2022-12-08T21:14:07.703Z,56.33
2022-12-08T21:16:37.490Z,60.92
2022-12-08T21:19:05.871Z,63.42
2022-12-08T21:21:33.903Z,60.95
2022-12-08T21:24:02.167Z,63.85
2022-12-08T21:26:30.646Z,64.63
2022-12-08T21:28:59.401Z,67.28
2022-12-08T21:31:31.482Z,66.65
2022-12-08T21:34:03.187Z,66.65
2022-12-08T21:36:31.381Z,67.68
2022-12-08T21:39:01.079Z,65.38
2022-12-08T21:41:47.054Z,64.47
2022-12-08T21:44:18.398Z,69.38
2022-12-08T21:46:46.607Z,66.70
2022-12-08T21:49:16.667Z,67.38
2022-12-08T21:51:44.722Z,65.40
2022-12-08T21:54:18.320Z,66.85
2022-12-08T21:56:48.622Z,64.10
2022-12-08T21:59:17.370Z,63.50
2022-12-08T22:01:46.028Z,62.85
2022-12-08T22:04:19.269Z,58.42
2022-12-08T22:06:48.387Z,59.38
2022-12-08T22:09:16.547Z,57.30
2022-12-08T22:11:45.243Z,57.40
2022-12-08T22:14:15.213Z,55.85
2022-12-08T22:16:43.952Z,52.20
2022-12-08T22:19:12.627Z,50.97
2022-12-08T22:21:42.396Z,49.38
2022-12-08T22:24:10.685Z,49.50
2022-12-08T22:26:38.666Z,51.15
2022-12-08T22:29:06.800Z,48.60
2022-12-08T22:31:34.913Z,52.63
2022-12-08T22:34:02.935Z,51.33
2022-12-08T22:36:30.976Z,52.78
2022-12-08T22:39:02.073Z,56.05
2022-12-08T22:41:30.040Z,55.10
2022-12-08T22:43:58.147Z,58.83
2022-12-08T22:46:28.053Z,57.20
2022-12-08T22:48:56.260Z,56.67
2022-12-08T22:51:24.224Z,57.53
2022-12-08T22:53:52.556Z,54.40
2022-12-08T22:56:22.010Z,54.05
2022-12-08T22:58:50.921Z,52.00
2022-12-08T23:01:29.029Z,50.85
2022-12-08T23:03:57.561Z,53.58
2022-12-08T23:06:27.062Z,61.33
2022-12-08T23:08:55.469Z,69.90
2022-12-08T23:11:26.833Z,81.47
2022-12-08T23:13:56.252Z,89.63
2022-12-08T23:16:24.932Z,112.65
2022-12-08T23:18:53.181Z,127.85
2022-12-08T23:21:22.099Z,128.45
2022-12-08T23:23:50.462Z,124.53
2022-12-08T23:26:21.236Z,122.13
2022-12-08T23:28:51.042Z,113.57
2022-12-08T23:31:20.354Z,114.68
2022-12-08T23:33:48.652Z,140.15
2022-12-08T23:36:17.892Z,120.97
2022-12-08T23:38:46.473Z,118.43
2022-12-08T23:41:16.209Z,136.75
2022-12-08T23:43:46.435Z,125.97
2022-12-08T23:46:17.347Z,118.88
2022-12-08T23:48:45.588Z,115.97
2022-12-08T23:51:14.537Z,125.07
2022-12-08T23:53:42.679Z,127.20
2022-12-08T23:56:13.660Z,142.07
2022-12-08T23:58:42.651Z,120.22
